Ardenvoir, WA

3:49 PM PDT on August 20, 2014 (GMT -0700)
Ephrata Municipal | Change Station
CLOSE
Current Station
Airport
Location: Ephrata,
Elevation: 1273 ft
Nearby Weather Stations

Elev 1273 ft 47.31 °N, 119.52 °W | Updated 56 minutes ago

Scattered Clouds
Scattered Clouds
87 °F
Feels Like 87 °F
N
8
Wind Variable Wind from West

Today
High -- | Low -- °F
--% Chance of Precip.
Yesterday
High -- | Low -- °F
Precip. -- in
6:03 AM 8:04 PM
Waning Crescent, 18% visible
Pressure 29.73 in
Visibility 10.0 miles
Clouds Scattered Clouds 9000 ft
Dew Point 45 °F
Humidity 23%
Rainfall 0.00 in
Snow Depth Not available.
UV 6 out of 12
Pollen 4.20 out of 12
Air Quality Not available.
Flu Activity Not available.
METAR KEPH 202153Z AUTO 28007KT 10SM SCT090 31/07 A2976 RMK AO2 SLP068 T03060072

More Conditions Fewer Conditions

Pressure 29.73 in
Visibility 10.0 miles
Clouds Scattered Clouds 9000 ft
Dew Point 45 °F
Humidity 23%
Rainfall 0.00 in
Snow Depth Not available.
UV 6 out of 12
Pollen 4.20 out of 12
Air Quality Not available.
Flu Activity Not available.
METAR KEPH 202153Z AUTO 28007KT 10SM SCT090 31/07 A2976 RMK AO2 SLP068 T03060072

More Conditions Fewer Conditions

10-Day Weather Forecast

Almanac

Astronomy

Aug. 20, 2014 Rise Set
Actual Time 6:03 AM PDT 8:04 PM PDT
Civil Twilight 5:30 AM PDT 8:38 PM PDT
Nautical Twilight 4:49 AM PDT 9:19 PM PDT
Astronomical Twilight 4:03 AM PDT 10:04 PM PDT
Moon 1:40 AM PDT 5:01 PM PDT
Length of Visible Light 15h 07m
Length of Day
14h 01m
Tomorrow will be 3m 11s shorter.
Waning Crescent, 18% of the Moon is Illuminated
Today
Waning Crescent
Aug 25
New
Sep 2
First Quarter
Sep 8
Full
Sep 15
Last Quarter

Today's Extremes

State Highs State Lows

Community

WunderPhotos

Upload Photos

1,745,791 photos uploaded!

Nearby

Snow Depth

Station Depth Elevation
Grouse Camp 0 in 5380 ft
Stampede Pass 1 in 3860 ft
Meadows Pass 0 in 3500 ft
Thunder Basin 1 in 4200 ft
Alpine Meadows 0 in 3500 ft

Earthquake Activity

City Distance Mag. Time & Date
No recent earthquake activity has been reported nearby.
Minimum magnitude displayed is 2.5.

Coastal Water Temperatures

Place Temperature
No Stations Reporting

Nearby Weather Stations